Time;durP1;ratioP1;P1;durP2;ratioP2;P2;SDS_P1;SDS_P2;PMS_P1;PMS_P2;Temp;Humidity;BMP_temperature;BMP_pressure;BME280_temperature;BME280_humidity;BME280_pressure;Samples;Min_cycle;Max_cycle;Signal;HPM_P1;HPM_P2
2023/10/02 00:09:20;;;;;;;12.07;6.93;;;;;;;17.95;48.60;100391.34;10374545;28;20229;-69
2023/10/02 00:14:23;;;;;;;11.73;7.53;;;;;;;17.79;49.54;100410.78;10383260;28;20328;-70
2023/10/02 00:19:44;;;;;;;11.10;6.97;;;;;;;17.93;48.88;100390.69;10383417;28;20316;-69
2023/10/02 00:24:47;;;;;;;14.23;7.00;;;;;;;17.86;48.99;100398.03;10379942;28;20616;-69
2023/10/02 00:29:57;;;;;;;11.37;6.63;;;;;;;17.79;48.68;100410.78;10397632;28;20236;-68
2023/10/02 00:35:03;;;;;;;11.20;6.60;;;;;;;17.75;48.80;100394.16;10394029;28;20324;-70
2023/10/02 00:40:07;;;;;;;10.40;6.37;;;;;;;17.20;48.89;100474.91;10397305;28;20233;-69
2023/10/02 00:45:09;;;;;;;10.73;6.50;;;;;;;17.79;48.09;100391.84;10381538;28;20797;-70
2023/10/02 00:50:18;;;;;;;10.67;6.37;;;;;;;17.54;48.98;100392.56;10435082;28;20319;-69
2023/10/02 00:55:37;;;;;;;10.67;6.23;;;;;;;17.03;48.74;100440.19;10419067;28;20603;-68
2023/10/02 01:00:47;;;;;;;13.13;6.60;;;;;;;15.86;52.01;100464.84;10422682;28;21273;-69
2023/10/02 01:05:50;;;;;;;11.97;7.30;;;;;;;15.97;52.07;100414.00;10422592;28;20692;-69
2023/10/02 01:11:03;;;;;;;11.37;6.87;;;;;;;15.86;51.94;100440.53;10419533;28;20711;-70
2023/10/02 01:16:09;;;;;;;12.07;6.80;;;;;;;15.91;52.04;100417.50;10418993;28;20902;-70
2023/10/02 01:21:11;;;;;;;11.57;5.87;;;;;;;16.04;50.04;100399.47;10420223;28;20233;-69
2023/10/02 01:26:16;;;;;;;10.07;5.73;;;;;;;16.37;47.76;100405.97;10413498;28;20229;-70
2023/10/02 01:31:31;;;;;;;11.87;6.87;;;;;;;16.20;49.30;100421.72;10420975;28;20600;-70
2023/10/02 01:36:33;;;;;;;9.60;6.20;;;;;;;16.95;48.14;100380.94;10435177;28;20231;-70
2023/10/02 01:41:35;;;;;;;9.43;6.20;;;;;;;16.64;48.54;100419.47;10416393;28;20792;-70
2023/10/02 01:46:49;;;;;;;11.37;6.37;;;;;;;16.67;48.59;100395.56;10418944;28;20236;-69
2023/10/02 01:51:55;;;;;;;9.47;6.17;;;;;;;16.27;49.28;100440.66;10409023;28;20228;-70
2023/10/02 01:56:59;;;;;;;10.20;6.27;;;;;;;16.60;48.72;100392.00;10413748;28;20228;-69
2023/10/02 02:02:12;;;;;;;14.60;6.63;;;;;;;16.76;48.48;100396.16;10416211;28;20254;-67
2023/10/02 02:07:20;;;;;;;10.03;6.17;;;;;;;16.30;48.90;100437.50;10444883;28;20234;-70
2023/10/02 02:12:22;;;;;;;11.27;6.83;;;;;;;16.41;48.96;100409.91;10416670;28;20236;-68
2023/10/02 02:17:25;;;;;;;10.93;6.37;;;;;;;16.40;49.32;100417.19;10414460;28;20699;-70
2023/10/02 02:22:32;;;;;;;12.97;6.73;;;;;;;15.23;51.65;100445.25;10451157;28;20231;-68
2023/10/02 02:27:34;;;;;;;12.33;6.67;;;;;;;15.56;51.00;100421.16;10418235;28;20239;-68
2023/10/02 02:32:43;;;;;;;13.37;6.83;;;;;;;16.00;50.26;100371.22;10450669;28;20610;-70
2023/10/02 02:37:45;;;;;;;10.73;6.67;;;;;;;15.52;51.24;100419.84;10417788;28;20790;-70
2023/10/02 02:42:51;;;;;;;10.30;6.53;;;;;;;16.00;50.32;100403.59;10454162;28;20223;-72
2023/10/02 02:48:04;;;;;;;11.87;7.17;;;;;;;14.70;52.88;100488.81;10407350;28;20277;-70
2023/10/02 02:53:21;;;;;;;11.80;7.10;;;;;;;13.49;55.80;100497.41;10465627;28;20223;-70
2023/10/02 02:58:25;;;;;;;9.53;6.20;;;;;;;14.00;55.83;100391.63;10451275;28;20327;-70
2023/10/02 03:03:32;;;;;;;11.73;6.67;;;;;;;15.40;52.43;100362.97;10450740;28;20301;-70
2023/10/02 03:08:37;;;;;;;11.57;6.33;;;;;;;14.91;53.29;100437.59;10450534;28;20625;-70
2023/10/02 03:13:39;;;;;;;11.40;6.37;;;;;;;15.73;52.26;100347.94;10454014;28;20352;-70
2023/10/02 03:18:44;;;;;;;12.30;6.50;;;;;;;15.28;53.23;100427.41;10452143;28;20227;-70
2023/10/02 03:23:46;;;;;;;11.23;6.20;;;;;;;15.35;53.64;100376.22;10452643;28;20232;-70
2023/10/02 03:28:48;;;;;;;11.53;6.37;;;;;;;14.71;54.95;100436.59;10455460;28;20308;-69
2023/10/02 03:33:50;;;;;;;10.93;5.97;;;;;;;15.28;53.40;100392.38;10458008;28;20962;-70
2023/10/02 03:38:54;;;;;;;10.17;6.87;;;;;;;16.50;50.97;100354.63;10435299;28;20226;-70
2023/10/02 03:43:56;;;;;;;11.90;6.77;;;;;;;16.84;49.73;100370.75;10457051;28;20246;-70
2023/10/02 03:49:03;;;;;;;10.27;6.03;;;;;;;15.86;51.33;100459.44;10462164;28;20246;-70
2023/10/02 03:54:22;;;;;;;10.03;6.30;;;;;;;16.22;50.20;100420.44;10462926;28;20238;-70
2023/10/02 03:59:28;;;;;;;10.63;6.33;;;;;;;15.95;50.83;100451.97;10459925;28;20321;-68
2023/10/02 04:04:32;;;;;;;11.80;6.73;;;;;;;16.22;50.33;100417.75;10458515;28;20255;-70
2023/10/02 04:09:36;;;;;;;10.87;6.90;;;;;;;15.41;50.76;100504.88;10459067;28;20234;-69
2023/10/02 04:14:38;;;;;;;8.23;5.40;;;;;;;16.17;49.62;100425.63;10459190;28;20233;-70
2023/10/02 04:19:51;;;;;;;10.30;5.80;;;;;;;16.24;49.54;100431.03;10462807;28;20232;-70
2023/10/02 04:24:58;;;;;;;11.17;5.97;;;;;;;15.72;49.91;100508.97;10458385;28;20242;-70
2023/10/02 04:30:20;;;;;;;9.73;5.93;;;;;;;16.15;50.57;100424.19;10444371;28;20236;-69
2023/10/02 04:40:51;;;;;;;12.13;6.63;;;;;;;16.88;48.98;100389.03;10461843;28;20246;-70
2023/10/02 04:46:01;;;;;;;10.07;6.17;;;;;;;15.38;50.22;100532.22;10462874;28;20266;-68
2023/10/02 04:51:07;;;;;;;11.43;6.77;;;;;;;14.15;54.03;100469.66;10460310;28;20318;-70
2023/10/02 05:01:28;;;;;;;13.10;7.40;;;;;;;12.65;58.15;100479.59;10465627;28;20254;-68
2023/10/02 05:11:55;;;;;;;12.20;8.10;;;;;;;12.15;59.49;100416.59;10462046;28;20336;-69
2023/10/02 05:22:25;;;;;;;13.87;7.97;;;;;;;14.71;53.02;100320.75;10456352;28;20227;-68
2023/10/02 05:27:30;;;;;;;11.83;7.37;;;;;;;13.16;54.03;100476.25;10456778;28;20228;-70
2023/10/02 05:32:31;;;;;;;16.47;8.23;;;;;;;12.69;56.35;100432.59;10459767;28;20627;-69
2023/10/02 05:37:42;;;;;;;13.33;8.37;;;;;;;14.15;52.00;100485.81;10450387;28;20639;-69
2023/10/02 05:43:09;;;;;;;11.20;7.00;;;;;;;14.77;50.94;100446.59;10456775;28;20236;-70
2023/10/02 05:53:32;;;;;;;16.53;8.33;;;;;;;15.01;50.47;100461.50;10463181;28;20235;-70
2023/10/02 05:58:41;;;;;;;12.97;7.87;;;;;;;15.23;50.65;100446.06;10459300;28;20239;-69
2023/10/02 06:03:43;;;;;;;14.37;7.83;;;;;;;15.68;50.02;100445.69;10459139;28;20249;-70
2023/10/02 06:08:56;;;;;;;11.93;7.57;;;;;;;14.30;53.81;100531.50;10456334;28;20321;-69
2023/10/02 06:14:11;;;;;;;15.33;8.20;;;;;;;13.38;56.88;100473.69;10452198;28;20293;-70
2023/10/02 06:19:13;;;;;;;14.70;8.47;;;;;;;13.22;57.86;100461.25;10453734;28;20284;-68
2023/10/02 06:24:19;;;;;;;12.60;8.50;;;;;;;15.37;53.86;100362.53;10460032;28;20235;-68
2023/10/02 06:29:24;;;;;;;14.97;7.97;;;;;;;15.65;52.28;100457.69;10452008;28;20227;-68
2023/10/02 06:34:36;;;;;;;14.20;7.97;;;;;;;16.36;50.90;100482.59;10461676;28;20234;-69
2023/10/02 06:39:40;;;;;;;14.43;7.57;;;;;;;16.80;50.03;100473.06;10456062;28;20701;-69
2023/10/02 06:44:52;;;;;;;14.00;7.47;;;;;;;17.15;49.31;100483.66;10438934;28;20236;-69
2023/10/02 06:50:02;;;;;;;15.33;7.87;;;;;;;16.89;50.10;100501.53;10452764;28;20227;-70
2023/10/02 06:55:06;;;;;;;10.37;7.73;;;;;;;16.24;50.97;100583.09;10455541;28;20709;-70
2023/10/02 07:00:09;;;;;;;10.43;7.30;;;;;;;15.39;53.32;100573.53;10452032;28;20309;-70
2023/10/02 07:05:11;;;;;;;13.53;8.73;;;;;;;15.37;53.78;100533.28;10438727;28;20235;-70
2023/10/02 07:10:13;;;;;;;12.77;8.07;;;;;;;17.35;50.32;100408.69;10453506;28;20239;-69
2023/10/02 07:15:22;;;;;;;15.60;8.70;;;;;;;17.39;50.48;100484.81;10456839;28;20804;-70
2023/10/02 07:20:24;;;;;;;13.63;8.63;;;;;;;17.55;50.31;100481.66;10461576;28;20239;-69
2023/10/02 07:25:26;;;;;;;11.50;7.67;;;;;;;16.83;51.12;100567.22;10464061;28;20231;-68
2023/10/02 07:30:29;;;;;;;17.40;9.17;;;;;;;17.14;51.75;100511.72;10462472;28;20351;-70
2023/10/02 07:35:33;;;;;;;19.83;9.10;;;;;;;16.71;53.62;100542.69;10466798;28;20313;-69
2023/10/02 07:40:48;;;;;;;15.33;9.00;;;;;;;17.30;52.45;100454.47;10465734;28;20234;-70
2023/10/02 07:46:06;;;;;;;15.03;8.83;;;;;;;16.44;53.70;100550.75;10465267;28;20235;-70
2023/10/02 07:51:11;;;;;;;16.73;9.33;;;;;;;16.45;54.67;100567.81;10462970;28;20618;-69
2023/10/02 07:56:14;;;;;;;16.23;9.27;;;;;;;16.67;53.79;100514.44;10466582;28;20590;-69
2023/10/02 08:01:16;;;;;;;13.03;7.97;;;;;;;17.23;52.72;100506.94;10462438;28;20366;-69
2023/10/02 08:06:21;;;;;;;20.03;8.77;;;;;;;16.79;53.73;100549.78;10466400;28;20227;-70
2023/10/02 08:11:25;;;;;;;13.33;8.33;;;;;;;16.47;53.88;100603.56;10462394;28;20259;-69
2023/10/02 08:16:27;;;;;;;16.57;8.83;;;;;;;17.07;53.39;100478.47;10443915;28;20735;-68
2023/10/02 08:21:36;;;;;;;13.97;7.57;;;;;;;18.00;51.79;100439.38;10463471;28;20625;-69
2023/10/02 08:26:40;;;;;;;12.57;8.30;;;;;;;17.77;52.02;100545.53;10457479;28;20626;-70
2023/10/02 08:31:49;;;;;;;16.40;7.63;;;;;;;17.92;51.75;100500.06;10457453;28;20237;-69
2023/10/02 08:37:11;;;;;;;15.73;8.67;;;;;;;18.17;50.55;100559.72;10458303;28;20239;-70
2023/10/02 08:42:14;;;;;;;13.60;7.77;;;;;;;18.66;50.46;100470.63;10460313;28;20228;-70
2023/10/02 08:47:24;;;;;;;14.57;8.00;;;;;;;17.86;51.39;100558.59;10460001;28;20781;-70
2023/10/02 08:52:38;;;;;;;14.43;7.73;;;;;;;18.44;50.82;100459.34;10457645;28;20297;-69
2023/10/02 08:57:51;;;;;;;13.30;7.33;;;;;;;18.53;50.46;100552.84;10456465;28;20241;-70
2023/10/02 09:03:11;;;;;;;15.67;8.40;;;;;;;17.67;52.26;100533.25;10415843;28;20898;-70
2023/10/02 09:08:15;;;;;;;15.27;8.77;;;;;;;17.92;51.62;100527.13;10452643;28;20250;-70
2023/10/02 09:13:19;;;;;;;14.45;7.97;;;;;;;18.93;49.63;100497.50;10410264;28;20629;-69
2023/10/02 09:19:07;;;;;;;16.10;8.00;;;;;;;19.29;49.48;100457.91;10448909;28;20196;-69
2023/10/02 09:24:00;;;;;;;13.15;7.10;;;;;;;19.61;49.25;100464.03;10421971;28;20438;-69
2023/10/02 09:29:06;;;;;;;16.02;7.38;;;;;;;19.35;49.82;100514.81;10443994;28;20232;-69
2023/10/02 09:34:16;;;;;;;12.90;7.18;;;;;;;18.60;50.97;100537.38;10427043;28;20689;-70
2023/10/02 09:39:38;;;;;;;12.48;7.93;;;;;;;19.81;48.33;100506.38;10446175;28;20236;-69
2023/10/02 09:44:51;;;;;;;16.25;7.63;;;;;;;20.09;48.45;100492.19;10433077;28;20235;-69
2023/10/02 09:50:10;;;;;;;13.18;7.60;;;;;;;19.73;49.09;100485.78;10445221;28;20782;-70
2023/10/02 09:55:33;;;;;;;13.15;7.60;;;;;;;19.90;48.60;100470.50;10435993;28;20238;-70
2023/10/02 10:00:37;;;;;;;13.57;7.80;;;;;;;19.52;49.28;100501.47;10438496;28;20291;-69
2023/10/02 10:06:08;;;;;;;17.23;8.05;;;;;;;20.11;48.81;100461.03;10419707;28;20232;-70
2023/10/02 10:11:18;;;;;;;13.45;7.68;;;;;;;20.78;47.63;100475.47;10419772;28;20236;-70
2023/10/02 10:16:20;;;;;;;13.30;7.03;;;;;;;20.97;46.53;100479.75;10382346;28;20236;-70
2023/10/02 10:22:01;;;;;;;14.82;8.65;;;;;;;21.42;46.38;100419.25;10365383;28;20232;-69
2023/10/02 10:27:03;;;;;;;15.63;8.10;;;;;;;20.97;46.99;100444.38;10437786;28;20227;-70
2023/10/02 10:32:23;;;;;;;15.15;7.75;;;;;;;22.02;45.10;100438.88;10455500;28;20237;-70
2023/10/02 10:37:46;;;;;;;14.88;7.60;;;;;;;22.12;45.03;100405.53;10459161;28;20231;-70
2023/10/02 10:42:59;;;;;;;16.55;8.32;;;;;;;21.72;45.25;100442.66;10444903;28;20242;-69
2023/10/02 10:48:02;;;;;;;15.68;9.07;;;;;;;21.92;44.77;100441.41;10436495;28;20234;-69
2023/10/02 10:58:35;;;;;;;16.63;8.90;;;;;;;23.32;43.27;100355.16;10456438;28;20243;-69
2023/10/02 11:06:16;;;;;;;16.90;8.48;;;;;;;20.80;46.06;100427.13;10397869;28;21452;-70
2023/10/02 11:11:25;;;;;;;15.57;8.70;;;;;;;21.83;45.17;100372.88;10345522;28;20230;-71
2023/10/02 11:16:32;;;;;;;15.25;8.85;;;;;;;22.22;44.11;100377.59;10344009;28;20233;-70
2023/10/02 11:21:44;;;;;;;15.68;8.73;;;;;;;22.15;44.25;100381.34;10343499;28;20287;-70
2023/10/02 11:26:47;;;;;;;16.20;8.70;;;;;;;21.85;44.55;100367.19;10376574;28;20232;-69
2023/10/02 11:32:19;;;;;;;16.75;8.80;;;;;;;22.01;44.48;100347.31;10360791;28;20225;-70
2023/10/02 11:37:23;;;;;;;17.33;9.20;;;;;;;21.96;44.10;100383.50;10375987;28;20256;-70
2023/10/02 11:42:24;;;;;;;17.80;9.50;;;;;;;22.48;43.84;100363.28;10387194;28;20584;-69
2023/10/02 11:47:28;;;;;;;18.10;9.68;;;;;;;22.57;43.14;100347.38;10385473;28;20248;-70
2023/10/02 11:52:31;;;;;;;17.65;9.13;;;;;;;22.89;42.58;100336.63;10385258;28;20235;-70
2023/10/02 11:57:33;;;;;;;17.45;9.43;;;;;;;22.20;43.93;100298.84;10383517;28;20269;-70
2023/10/02 12:02:35;;;;;;;16.30;8.80;;;;;;;22.66;43.60;100309.59;10384722;28;20240;-70
2023/10/02 12:07:38;;;;;;;17.67;9.25;;;;;;;22.37;43.64;100303.41;10388649;28;20233;-70
2023/10/02 12:12:41;;;;;;;17.40;9.48;;;;;;;22.51;43.30;100281.03;10382435;28;20237;-69
2023/10/02 12:17:44;;;;;;;17.65;9.60;;;;;;;21.97;44.68;100281.59;10317649;28;20236;-70
2023/10/02 12:22:46;;;;;;;17.83;9.50;;;;;;;23.48;42.62;100222.31;10352637;28;20657;-69
2023/10/02 12:27:49;;;;;;;18.92;8.90;;;;;;;23.69;41.79;100248.72;10362501;28;20736;-69
2023/10/02 12:32:53;;;;;;;15.88;8.63;;;;;;;22.84;43.81;100224.69;10359295;28;20347;-70
2023/10/02 12:37:55;;;;;;;17.60;9.52;;;;;;;23.87;41.88;100195.59;10350342;28;20233;-70
2023/10/02 12:42:56;;;;;;;17.58;8.18;;;;;;;24.28;41.49;100209.50;10356464;28;20949;-70
2023/10/02 12:47:58;;;;;;;14.43;7.70;;;;;;;23.62;42.39;100227.09;10353761;28;20225;-70
2023/10/02 12:53:00;;;;;;;13.48;7.35;;;;;;;23.44;42.00;100222.00;10356363;28;20238;-70
2023/10/02 12:58:05;;;;;;;14.65;7.13;;;;;;;23.65;41.91;100233.94;10359644;28;20239;-70
2023/10/02 13:03:07;;;;;;;15.48;7.72;;;;;;;24.46;40.44;100177.28;10317414;28;20241;-70
2023/10/02 13:08:09;;;;;;;19.33;7.82;;;;;;;23.55;42.22;100163.66;10316536;28;20342;-70
2023/10/02 13:13:11;;;;;;;15.07;7.93;;;;;;;24.18;41.10;100198.50;10318714;28;20931;-70
2023/10/02 13:18:13;;;;;;;16.58;8.23;;;;;;;24.68;40.21;100172.47;10355987;28;20891;-70
2023/10/02 13:23:15;;;;;;;13.82;7.80;;;;;;;24.70;40.08;100172.19;10352585;28;20233;-70
2023/10/02 13:28:17;;;;;;;18.75;9.85;;;;;;;24.09;38.81;100211.00;10353691;28;20702;-70
2023/10/02 13:33:24;;;;;;;19.05;10.00;;;;;;;23.86;38.83;100182.19;10354229;28;20225;-70
2023/10/02 13:38:27;;;;;;;20.50;10.73;;;;;;;24.20;38.69;100182.66;10355246;28;20855;-70
2023/10/02 13:43:31;;;;;;;19.98;10.48;;;;;;;23.97;38.45;100145.59;10354075;28;20249;-69
2023/10/02 13:48:33;;;;;;;18.90;9.93;;;;;;;23.45;38.63;100180.78;10347981;28;20237;-70
2023/10/02 13:53:36;;;;;;;20.48;10.50;;;;;;;24.30;37.81;100166.28;10346622;22;20234;-36
2023/10/02 13:58:39;;;;;;;15.18;8.40;;;;;;;24.54;41.26;100122.03;10329296;28;20264;-36
2023/10/02 14:03:46;;;;;;;15.02;7.93;;;;;;;23.53;43.95;100119.38;10324254;28;20229;-36
2023/10/02 14:08:49;;;;;;;15.18;8.45;;;;;;;23.71;43.69;100090.03;10363199;22;20240;-36
2023/10/02 14:13:53;;;;;;;16.20;8.82;;;;;;;23.77;43.35;100094.41;10381954;28;20243;-36
2023/10/02 14:18:56;;;;;;;18.10;8.90;;;;;;;23.61;43.99;100063.47;10368441;28;20329;-35
2023/10/02 14:23:58;;;;;;;14.43;8.07;;;;;;;23.69;43.95;100073.91;10350171;28;20237;-35
2023/10/02 14:29:00;;;;;;;15.75;7.88;;;;;;;23.66;44.48;100051.75;10347362;28;20373;-36
2023/10/02 14:34:06;;;;;;;15.60;8.73;;;;;;;24.29;42.25;100044.34;10347983;28;20229;-36
2023/10/02 14:39:09;;;;;;;17.25;9.00;;;;;;;23.88;42.91;100052.38;10344236;28;20349;-36
2023/10/02 14:44:10;;;;;;;13.35;8.13;;;;;;;24.05;42.84;100063.09;10346995;28;20316;-36
2023/10/02 14:49:12;;;;;;;15.65;9.15;;;;;;;23.72;41.95;100083.47;10345284;28;20953;-36
2023/10/02 14:54:15;;;;;;;16.13;8.63;;;;;;;24.09;41.97;100061.50;10347661;28;20720;-36
2023/10/02 15:05:18;;;;;;;19.80;9.43;;;;;;;23.48;43.02;100021.03;10460837;28;20809;-66
2023/10/02 15:10:22;;;;;;;15.13;8.75;;;;;;;23.53;42.48;100023.78;10445140;28;20326;-66
2023/10/02 15:15:28;;;;;;;17.65;9.82;;;;;;;23.92;42.58;100008.94;10436170;28;20602;-67
2023/10/02 15:20:32;;;;;;;15.82;9.43;;;;;;;23.34;42.77;100033.53;10455104;28;20778;-67
2023/10/02 15:25:35;;;;;;;19.52;10.40;;;;;;;23.65;42.25;100028.25;10450881;28;20567;-67
2023/10/02 15:30:37;;;;;;;21.33;10.77;;;;;;;23.39;43.44;100044.50;10452955;28;20706;-68
2023/10/02 15:35:38;;;;;;;20.02;9.10;;;;;;;24.40;41.85;99992.41;10455238;28;20253;-68
2023/10/02 15:40:43;;;;;;;18.70;10.02;;;;;;;23.91;41.54;100040.13;10455564;28;20702;-68
2023/10/02 15:45:54;;;;;;;17.52;10.30;;;;;;;23.27;41.86;100036.50;10456724;28;20650;-69
2023/10/02 15:50:55;;;;;;;17.75;10.68;;;;;;;24.28;41.50;100001.69;10459362;28;20308;-68
2023/10/02 15:55:57;;;;;;;19.40;10.90;;;;;;;24.23;41.09;100014.53;10455119;28;20234;-69
2023/10/02 16:00:59;;;;;;;17.90;10.20;;;;;;;24.23;40.74;100022.75;10460005;28;20721;-66
2023/10/02 16:06:04;;;;;;;21.50;10.00;;;;;;;24.35;40.30;100018.63;10457674;28;20293;-67
2023/10/02 16:11:06;;;;;;;23.30;10.80;;;;;;;24.50;39.52;100028.78;10452987;28;20652;-67
2023/10/02 16:16:11;;;;;;;22.00;10.35;;;;;;;24.04;39.96;100068.84;10429654;28;20231;-67
2023/10/02 16:21:13;;;;;;;19.52;10.70;;;;;;;23.85;40.60;100046.66;10430602;28;20246;-67
2023/10/02 16:26:19;;;;;;;21.10;10.30;;;;;;;23.93;40.20;100032.47;10423253;28;20225;-67
2023/10/02 16:31:24;;;;;;;22.13;10.93;;;;;;;24.10;39.75;100034.97;10425735;28;20279;-67
2023/10/02 16:36:32;;;;;;;20.40;11.00;;;;;;;23.57;40.36;100032.31;10431734;28;20236;-67
2023/10/02 16:41:35;;;;;;;21.10;11.00;;;;;;;24.30;39.42;99999.50;10430584;28;20232;-67
2023/10/02 16:46:39;;;;;;;22.65;11.02;;;;;;;23.84;40.65;100031.31;10423944;28;20238;-68
2023/10/02 16:51:41;;;;;;;19.60;10.82;;;;;;;24.39;40.18;99986.09;10432009;28;20224;-66
2023/10/02 16:56:43;;;;;;;19.45;10.02;;;;;;;24.58;40.11;99972.72;10430326;28;20263;-68
2023/10/02 17:01:49;;;;;;;20.63;10.02;;;;;;;24.14;41.88;99986.84;10433758;28;20235;-67
2023/10/02 17:06:51;;;;;;;18.20;10.52;;;;;;;24.27;42.17;99975.44;10430405;28;20815;-67
2023/10/02 17:11:53;;;;;;;19.92;11.50;;;;;;;24.28;42.52;99949.75;10430991;28;20702;-67
2023/10/02 17:16:55;;;;;;;22.70;11.30;;;;;;;23.00;43.09;99982.81;10431242;28;20228;-68
2023/10/02 17:21:57;;;;;;;20.52;11.02;;;;;;;21.57;45.39;99933.22;10422981;28;20231;-67
2023/10/02 17:27:01;;;;;;;21.23;11.70;;;;;;;21.41;45.42;99941.22;10409170;28;20610;-67
2023/10/02 17:32:02;;;;;;;21.45;10.30;;;;;;;21.17;45.24;99961.53;10426184;28;20470;-67
2023/10/02 17:37:04;;;;;;;21.88;11.13;;;;;;;21.22;45.13;99937.97;10424938;28;20675;-66
2023/10/02 17:42:06;;;;;;;21.60;10.52;;;;;;;21.12;45.27;99942.44;10421544;28;20601;-66
2023/10/02 17:47:09;;;;;;;20.17;11.10;;;;;;;21.24;44.64;99935.81;10418072;28;20228;-69
2023/10/02 17:52:11;;;;;;;21.13;11.15;;;;;;;20.90;45.43;99945.94;10423307;28;20220;-68
2023/10/02 17:57:17;;;;;;;18.17;10.00;;;;;;;22.99;42.34;99920.31;10423968;28;22201;-66
2023/10/02 18:02:20;;;;;;;22.95;10.45;;;;;;;21.32;45.21;99975.34;10419101;28;20715;-66
2023/10/02 18:07:23;;;;;;;19.27;10.93;;;;;;;20.12;47.10;99940.28;10415945;28;20897;-68
2023/10/02 18:12:25;;;;;;;19.42;9.82;;;;;;;19.81;46.86;99928.88;10420560;28;20228;-68
2023/10/02 18:17:27;;;;;;;18.98;10.07;;;;;;;19.79;46.83;99924.72;10421024;28;20228;-68
2023/10/02 18:22:28;;;;;;;20.88;10.40;;;;;;;20.65;45.03;99900.16;10419935;28;20242;-68
2023/10/02 18:27:30;;;;;;;18.60;10.70;;;;;;;20.69;45.02;99940.16;10421412;28;20338;-68
2023/10/02 18:32:32;;;;;;;18.10;9.77;;;;;;;20.86;43.98;99929.28;10429253;28;20235;-66
2023/10/02 18:37:34;;;;;;;19.58;9.60;;;;;;;21.44;42.83;99948.03;10422578;28;20239;-67
2023/10/02 18:42:36;;;;;;;17.63;9.63;;;;;;;20.84;44.05;99964.06;10422436;28;20228;-68
2023/10/02 18:47:39;;;;;;;17.67;9.43;;;;;;;20.39;45.17;99999.47;10418289;28;20305;-68
2023/10/02 18:52:41;;;;;;;18.52;9.77;;;;;;;19.76;46.44;99973.03;10418587;28;20234;-68
2023/10/02 18:57:43;;;;;;;19.77;10.90;;;;;;;20.45;44.98;99939.53;10424303;28;20764;-68
2023/10/02 19:02:45;;;;;;;20.40;11.00;;;;;;;19.92;47.52;99917.13;10424278;28;20745;-68
2023/10/02 19:07:47;;;;;;;22.42;11.25;;;;;;;19.02;49.61;99957.31;10419556;28;20234;-67
2023/10/02 19:12:50;;;;;;;22.23;11.77;;;;;;;18.87;50.92;99937.97;10422012;28;20603;-67
2023/10/02 19:17:51;;;;;;;22.33;11.45;;;;;;;18.68;52.06;99904.75;10422524;28;20231;-67
2023/10/02 19:22:53;;;;;;;25.17;12.32;;;;;;;17.76;54.24;99924.06;10419576;28;20234;-66
2023/10/02 19:27:55;;;;;;;22.95;13.00;;;;;;;17.89;53.78;99903.03;10402242;28;20231;-68
2023/10/02 19:32:57;;;;;;;22.75;11.95;;;;;;;18.93;51.57;99846.75;10422090;28;20228;-66
2023/10/02 19:37:59;;;;;;;23.65;12.50;;;;;;;19.65;49.77;99910.63;10420703;28;20228;-68
2023/10/02 19:43:00;;;;;;;22.38;12.27;;;;;;;20.12;48.68;99922.06;10420121;28;20239;-67
2023/10/02 19:48:04;;;;;;;19.73;10.77;;;;;;;20.95;46.23;99931.59;10424755;28;20236;-68
2023/10/02 19:53:05;;;;;;;19.80;10.60;;;;;;;19.73;48.12;100008.78;10434688;22;20241;-35
2023/10/02 19:58:09;;;;;;;20.65;11.30;;;;;;;20.96;46.87;99976.75;10344054;28;20244;-35
2023/10/02 20:03:11;;;;;;;17.23;9.93;;;;;;;21.50;45.73;99968.81;10348916;28;20715;-35
2023/10/02 20:08:13;;;;;;;18.73;10.27;;;;;;;20.36;47.65;99983.66;10343049;28;20216;-34
2023/10/02 20:13:15;;;;;;;21.92;11.95;;;;;;;21.33;46.14;99949.78;10340445;28;20263;-35
2023/10/02 20:18:17;;;;;;;24.08;12.10;;;;;;;21.38;45.82;99949.88;10341439;28;20289;-35
2023/10/02 20:23:19;;;;;;;19.02;11.15;;;;;;;20.73;46.94;99978.53;10341514;28;20700;-34
2023/10/02 20:28:24;;;;;;;19.88;10.73;;;;;;;21.75;44.84;99951.97;10347946;28;20261;-35
2023/10/02 20:33:26;;;;;;;19.95;11.13;;;;;;;21.54;45.66;99944.63;10341576;28;20272;-34
2023/10/02 20:38:28;;;;;;;20.65;11.30;;;;;;;20.85;46.54;99992.94;10339450;28;20241;-34
2023/10/02 20:43:29;;;;;;;25.58;12.65;;;;;;;20.75;46.31;99981.88;10345071;28;20253;-34
2023/10/02 20:48:34;;;;;;;21.63;11.55;;;;;;;20.62;46.35;99963.97;10344464;28;20283;-34
2023/10/02 20:53:36;;;;;;;22.52;11.63;;;;;;;20.77;46.04;99978.94;10346734;28;20252;-34
2023/10/02 20:58:38;;;;;;;24.00;11.57;;;;;;;21.32;45.43;99958.22;10343919;28;20394;-34
2023/10/02 21:03:40;;;;;;;23.38;12.30;;;;;;;18.72;49.90;99998.06;10340068;28;20236;-34
2023/10/02 21:08:42;;;;;;;21.63;12.10;;;;;;;19.73;48.77;99881.19;10339381;28;20251;-34
2023/10/02 21:13:44;;;;;;;19.63;11.73;;;;;;;19.45;48.66;99946.28;10342683;28;20243;-34
2023/10/02 21:18:46;;;;;;;21.98;11.75;;;;;;;20.99;45.93;99930.84;10393207;22;20331;-37
2023/10/02 21:23:50;;;;;;;25.33;11.88;;;;;;;20.55;46.14;99970.63;10432795;28;20240;-37
2023/10/02 21:28:52;;;;;;;19.23;10.80;;;;;;;18.75;49.18;99937.97;10429210;28;20688;-37
2023/10/02 21:33:54;;;;;;;21.42;11.40;;;;;;;19.62;47.65;99930.94;10415426;28;20201;-37
2023/10/02 21:38:55;;;;;;;18.20;10.75;;;;;;;18.60;47.77;99967.41;10419359;28;20366;-36
2023/10/02 21:43:57;;;;;;;19.45;11.05;;;;;;;20.01;46.17;99917.56;10422938;28;20776;-36
2023/10/02 21:48:59;;;;;;;19.50;10.90;;;;;;;19.63;46.53;99950.75;10425208;28;20318;-36
2023/10/02 21:54:01;;;;;;;21.35;10.88;;;;;;;20.19;46.08;99926.56;10420757;28;20645;-37
2023/10/02 21:59:03;;;;;;;22.60;11.52;;;;;;;19.38;47.53;99989.84;10418312;28;20301;-36
2023/10/02 22:04:06;;;;;;;19.30;10.95;;;;;;;19.09;48.84;99953.69;10415107;28;20228;-37
2023/10/02 22:09:10;;;;;;;24.73;11.35;;;;;;;20.07;47.23;99908.41;10416968;28;20242;-37
2023/10/02 22:14:15;;;;;;;20.77;11.45;;;;;;;20.10;47.17;99905.22;10421315;28;20687;-36
2023/10/02 22:19:17;;;;;;;26.38;12.02;;;;;;;19.58;48.06;99967.75;10415653;28;20246;-36
2023/10/02 22:24:21;;;;;;;21.38;11.27;;;;;;;19.90;48.53;99913.00;10417106;28;20249;-36
2023/10/02 22:29:24;;;;;;;20.85;11.88;;;;;;;19.86;48.72;99923.53;10414357;28;20236;-36
2023/10/02 22:34:30;;;;;;;19.38;11.07;;;;;;;19.63;49.26;99900.00;10422370;28;20229;-36
2023/10/02 22:39:42;;;;;;;22.92;12.13;;;;;;;19.80;48.26;99916.34;10416213;28;20808;-36
2023/10/02 22:44:44;;;;;;;20.10;11.65;;;;;;;19.64;48.16;99928.81;10415294;28;20232;-36
2023/10/02 22:49:46;;;;;;;24.85;12.30;;;;;;;20.18;47.93;99857.84;10418599;28;20242;-36
2023/10/02 22:54:49;;;;;;;26.77;12.60;;;;;;;18.80;50.76;99938.09;10420642;28;20296;-36
2023/10/02 22:59:50;;;;;;;25.48;12.77;;;;;;;19.99;48.85;99864.53;10422275;28;20308;-38
2023/10/02 23:04:52;;;;;;;22.98;12.50;;;;;;;19.36;50.23;99903.25;10416543;28;20238;-38
2023/10/02 23:09:54;;;;;;;24.38;12.43;;;;;;;18.27;51.80;99955.19;10415717;28;20231;-36
2023/10/02 23:14:56;;;;;;;22.15;12.80;;;;;;;19.61;49.65;99866.06;10418283;28;20234;-36
2023/10/02 23:19:57;;;;;;;28.50;13.25;;;;;;;18.61;51.45;99868.81;10414066;28;20310;-36
2023/10/02 23:25:03;;;;;;;21.60;12.70;;;;;;;18.88;51.07;99824.91;10420503;28;20988;-36
2023/10/02 23:30:08;;;;;;;23.17;12.98;;;;;;;18.52;51.59;99829.56;10426909;28;20293;-36
2023/10/02 23:35:11;;;;;;;24.58;12.73;;;;;;;17.92;52.02;99859.28;10424638;28;20358;-37
2023/10/02 23:40:16;;;;;;;26.50;12.97;;;;;;;18.25;51.61;99814.59;10423313;28;20228;-36
2023/10/02 23:45:22;;;;;;;23.73;12.00;;;;;;;18.29;50.93;99861.03;10424033;28;20716;-37
2023/10/02 23:50:29;;;;;;;25.85;13.10;;;;;;;18.28;51.60;99818.72;10428710;28;20550;-37
2023/10/02 23:55:35;;;;;;;27.23;13.03;;;;;;;18.13;51.54;99853.56;10424327;28;20256;-37
